sensor_id;sensor_type;location;lat;lon;timestamp;P1;durP1;ratioP1;P2;durP2;ratioP2
61003;SDS011;46889;37.310;13.582;2023-09-19T16:47:26;8.20;;;2.22;;
61003;SDS011;46889;37.310;13.582;2023-09-19T16:52:18;7.80;;;2.33;;
61003;SDS011;46889;37.310;13.582;2023-09-19T16:54:50;11.05;;;3.08;;
61003;SDS011;46889;37.310;13.582;2023-09-19T16:57:16;11.57;;;3.17;;
61003;SDS011;46889;37.310;13.582;2023-09-19T16:59:43;4.57;;;2.15;;
61003;SDS011;46889;37.310;13.582;2023-09-19T17:02:09;7.68;;;2.70;;
61003;SDS011;46889;37.310;13.582;2023-09-19T17:04:35;18.70;;;3.35;;
61003;SDS011;46889;37.310;13.582;2023-09-19T17:07:01;9.38;;;3.05;;
61003;SDS011;46889;37.310;13.582;2023-09-19T17:09:27;12.70;;;2.90;;
61003;SDS011;46889;37.310;13.582;2023-09-19T17:11:54;13.15;;;2.78;;
61003;SDS011;46889;37.310;13.582;2023-09-19T17:14:20;9.18;;;2.70;;
61003;SDS011;46889;37.310;13.582;2023-09-19T17:19:14;11.20;;;2.70;;
61003;SDS011;46889;37.310;13.582;2023-09-19T17:21:40;16.52;;;2.80;;
61003;SDS011;46889;37.310;13.582;2023-09-19T17:24:06;12.73;;;3.08;;
61003;SDS011;46889;37.310;13.582;2023-09-19T17:28:58;8.07;;;3.08;;
61003;SDS011;46889;37.310;13.582;2023-09-19T17:31:25;9.48;;;3.58;;
61003;SDS011;46889;37.310;13.582;2023-09-19T17:33:53;12.88;;;3.97;;
61003;SDS011;46889;37.310;13.582;2023-09-19T17:36:20;11.07;;;3.78;;
61003;SDS011;46889;37.310;13.582;2023-09-19T17:38:48;10.55;;;3.20;;
61003;SDS011;46889;37.310;13.582;2023-09-19T17:41:16;11.95;;;4.35;;
61003;SDS011;46889;37.310;13.582;2023-09-19T17:43:42;11.00;;;4.25;;
61003;SDS011;46889;37.310;13.582;2023-09-19T17:46:13;9.80;;;4.50;;
61003;SDS011;46889;37.310;13.582;2023-09-19T17:48:43;15.98;;;4.85;;
61003;SDS011;46889;37.310;13.582;2023-09-19T17:51:11;10.70;;;4.93;;
61003;SDS011;46889;37.310;13.582;2023-09-19T17:53:39;12.52;;;5.00;;
61003;SDS011;46889;37.310;13.582;2023-09-19T17:56:08;17.83;;;5.43;;
61003;SDS011;46889;37.310;13.582;2023-09-19T17:58:36;18.48;;;4.95;;
61003;SDS011;46889;37.310;13.582;2023-09-19T18:01:21;14.02;;;5.13;;
61003;SDS011;46889;37.310;13.582;2023-09-19T18:03:48;22.95;;;4.82;;
61003;SDS011;46889;37.310;13.582;2023-09-19T18:06:22;12.00;;;4.90;;
61003;SDS011;46889;37.310;13.582;2023-09-19T18:08:49;13.68;;;4.22;;
61003;SDS011;46889;37.310;13.582;2023-09-19T18:11:16;8.05;;;3.92;;
61003;SDS011;46889;37.310;13.582;2023-09-19T18:13:44;17.33;;;4.97;;
61003;SDS011;46889;37.310;13.582;2023-09-19T18:16:19;14.98;;;5.00;;
61003;SDS011;46889;37.310;13.582;2023-09-19T18:18:47;10.30;;;3.90;;
61003;SDS011;46889;37.310;13.582;2023-09-19T18:21:17;13.70;;;4.93;;
61003;SDS011;46889;37.310;13.582;2023-09-19T18:23:48;8.95;;;3.10;;
61003;SDS011;46889;37.310;13.582;2023-09-19T18:26:20;10.90;;;3.23;;
61003;SDS011;46889;37.310;13.582;2023-09-19T18:33:38;8.80;;;3.97;;
61003;SDS011;46889;37.310;13.582;2023-09-19T18:38:38;10.68;;;4.65;;
61003;SDS011;46889;37.310;13.582;2023-09-19T18:41:11;14.68;;;4.75;;
61003;SDS011;46889;37.310;13.582;2023-09-19T18:43:39;9.10;;;3.13;;
61003;SDS011;46889;37.310;13.582;2023-09-19T18:48:35;13.57;;;4.10;;
61003;SDS011;46889;37.310;13.582;2023-09-19T18:51:05;12.82;;;4.68;;
61003;SDS011;46889;37.310;13.582;2023-09-19T18:53:32;8.40;;;2.92;;
61003;SDS011;46889;37.310;13.582;2023-09-19T18:56:05;10.32;;;3.25;;
61003;SDS011;46889;37.310;13.582;2023-09-19T18:58:34;6.35;;;2.80;;
61003;SDS011;46889;37.310;13.582;2023-09-19T19:01:04;16.58;;;3.38;;
61003;SDS011;46889;37.310;13.582;2023-09-19T19:03:32;9.80;;;3.63;;
61003;SDS011;46889;37.310;13.582;2023-09-19T19:08:33;11.90;;;3.58;;
61003;SDS011;46889;37.310;13.582;2023-09-19T19:11:00;23.88;;;7.30;;
61003;SDS011;46889;37.310;13.582;2023-09-19T19:13:26;7.55;;;3.95;;
61003;SDS011;46889;37.310;13.582;2023-09-19T19:15:56;18.02;;;4.43;;
61003;SDS011;46889;37.310;13.582;2023-09-19T19:18:23;15.30;;;5.05;;
61003;SDS011;46889;37.310;13.582;2023-09-19T19:21:03;14.60;;;3.92;;
61003;SDS011;46889;37.310;13.582;2023-09-19T19:23:31;12.43;;;5.30;;
61003;SDS011;46889;37.310;13.582;2023-09-19T19:26:01;15.55;;;4.50;;
61003;SDS011;46889;37.310;13.582;2023-09-19T19:28:32;12.52;;;4.63;;
61003;SDS011;46889;37.310;13.582;2023-09-19T19:31:07;13.63;;;4.63;;
61003;SDS011;46889;37.310;13.582;2023-09-19T19:33:34;13.25;;;4.50;;
61003;SDS011;46889;37.310;13.582;2023-09-19T19:36:07;10.73;;;4.18;;
61003;SDS011;46889;37.310;13.582;2023-09-19T19:38:37;20.10;;;5.03;;
61003;SDS011;46889;37.310;13.582;2023-09-19T19:41:05;14.05;;;4.10;;
61003;SDS011;46889;37.310;13.582;2023-09-19T19:43:32;15.50;;;4.57;;
61003;SDS011;46889;37.310;13.582;2023-09-19T19:46:02;14.80;;;3.97;;
61003;SDS011;46889;37.310;13.582;2023-09-19T19:48:29;12.60;;;3.40;;
61003;SDS011;46889;37.310;13.582;2023-09-19T19:53:25;9.85;;;4.13;;
61003;SDS011;46889;37.310;13.582;2023-09-19T19:55:52;10.27;;;4.05;;
61003;SDS011;46889;37.310;13.582;2023-09-19T20:00:54;11.13;;;3.58;;
61003;SDS011;46889;37.310;13.582;2023-09-19T20:03:21;16.83;;;3.85;;
61003;SDS011;46889;37.310;13.582;2023-09-19T20:05:47;12.98;;;3.75;;
61003;SDS011;46889;37.310;13.582;2023-09-19T20:08:14;8.50;;;3.78;;
61003;SDS011;46889;37.310;13.582;2023-09-19T20:10:40;12.48;;;3.50;;
61003;SDS011;46889;37.310;13.582;2023-09-19T20:13:07;11.90;;;3.92;;
61003;SDS011;46889;37.310;13.582;2023-09-19T20:15:34;13.07;;;4.05;;
61003;SDS011;46889;37.310;13.582;2023-09-19T20:18:03;11.65;;;3.88;;
61003;SDS011;46889;37.310;13.582;2023-09-19T20:20:36;12.82;;;5.00;;
61003;SDS011;46889;37.310;13.582;2023-09-19T20:23:02;10.73;;;4.07;;
61003;SDS011;46889;37.310;13.582;2023-09-19T20:27:56;12.20;;;4.93;;
61003;SDS011;46889;37.310;13.582;2023-09-19T20:30:22;10.20;;;4.80;;
61003;SDS011;46889;37.310;13.582;2023-09-19T20:32:48;8.85;;;3.63;;
61003;SDS011;46889;37.310;13.582;2023-09-19T20:35:15;13.30;;;3.58;;
61003;SDS011;46889;37.310;13.582;2023-09-19T20:37:41;12.63;;;3.85;;
61003;SDS011;46889;37.310;13.582;2023-09-19T20:40:08;12.30;;;4.18;;
61003;SDS011;46889;37.310;13.582;2023-09-19T20:42:42;15.65;;;4.10;;
61003;SDS011;46889;37.310;13.582;2023-09-19T20:45:08;9.40;;;3.63;;
61003;SDS011;46889;37.310;13.582;2023-09-19T20:47:38;11.93;;;4.13;;
61003;SDS011;46889;37.310;13.582;2023-09-19T20:50:05;9.55;;;3.33;;
61003;SDS011;46889;37.310;13.582;2023-09-19T20:52:32;12.45;;;3.47;;
61003;SDS011;46889;37.310;13.582;2023-09-19T20:55:00;9.82;;;3.60;;
61003;SDS011;46889;37.310;13.582;2023-09-19T20:57:26;14.98;;;4.55;;
61003;SDS011;46889;37.310;13.582;2023-09-19T20:59:52;14.25;;;3.83;;
61003;SDS011;46889;37.310;13.582;2023-09-19T21:02:18;10.18;;;4.03;;
61003;SDS011;46889;37.310;13.582;2023-09-19T21:04:44;12.10;;;3.42;;
61003;SDS011;46889;37.310;13.582;2023-09-19T21:07:10;14.38;;;3.67;;
61003;SDS011;46889;37.310;13.582;2023-09-19T21:09:39;11.82;;;3.85;;
61003;SDS011;46889;37.310;13.582;2023-09-19T21:12:07;10.98;;;4.55;;
61003;SDS011;46889;37.310;13.582;2023-09-19T21:14:33;16.88;;;4.75;;
61003;SDS011;46889;37.310;13.582;2023-09-19T21:17:00;21.55;;;4.00;;
61003;SDS011;46889;37.310;13.582;2023-09-19T21:19:29;11.95;;;3.88;;
61003;SDS011;46889;37.310;13.582;2023-09-19T21:21:56;18.58;;;4.55;;
61003;SDS011;46889;37.310;13.582;2023-09-19T21:24:23;13.82;;;4.00;;
61003;SDS011;46889;37.310;13.582;2023-09-19T21:26:55;15.48;;;4.32;;
61003;SDS011;46889;37.310;13.582;2023-09-19T21:29:30;10.00;;;4.43;;
61003;SDS011;46889;37.310;13.582;2023-09-19T21:31:56;12.25;;;4.30;;
61003;SDS011;46889;37.310;13.582;2023-09-19T21:34:23;12.02;;;3.70;;
61003;SDS011;46889;37.310;13.582;2023-09-19T21:39:16;14.25;;;4.78;;
61003;SDS011;46889;37.310;13.582;2023-09-19T21:41:43;14.15;;;5.90;;
61003;SDS011;46889;37.310;13.582;2023-09-19T21:44:09;14.10;;;5.13;;
61003;SDS011;46889;37.310;13.582;2023-09-19T21:46:36;14.30;;;5.28;;
61003;SDS011;46889;37.310;13.582;2023-09-19T21:49:04;15.45;;;5.05;;
61003;SDS011;46889;37.310;13.582;2023-09-19T21:51:31;17.85;;;5.43;;
61003;SDS011;46889;37.310;13.582;2023-09-19T21:53:58;22.50;;;5.22;;
61003;SDS011;46889;37.310;13.582;2023-09-19T21:56:28;14.80;;;5.68;;
61003;SDS011;46889;37.310;13.582;2023-09-19T21:58:54;19.10;;;5.95;;
61003;SDS011;46889;37.310;13.582;2023-09-19T22:01:23;12.40;;;5.25;;
61003;SDS011;46889;37.310;13.582;2023-09-19T22:03:53;17.20;;;5.47;;
61003;SDS011;46889;37.310;13.582;2023-09-19T22:08:46;18.42;;;5.22;;
61003;SDS011;46889;37.310;13.582;2023-09-19T22:11:16;13.10;;;5.30;;
61003;SDS011;46889;37.310;13.582;2023-09-19T22:13:45;16.02;;;4.60;;
61003;SDS011;46889;37.310;13.582;2023-09-19T22:16:15;16.63;;;4.80;;
61003;SDS011;46889;37.310;13.582;2023-09-19T22:18:43;11.13;;;3.85;;
61003;SDS011;46889;37.310;13.582;2023-09-19T22:21:15;13.70;;;4.07;;
61003;SDS011;46889;37.310;13.582;2023-09-19T22:23:47;9.95;;;4.22;;
61003;SDS011;46889;37.310;13.582;2023-09-19T22:26:20;13.13;;;3.92;;
61003;SDS011;46889;37.310;13.582;2023-09-19T22:28:50;15.60;;;5.47;;
61003;SDS011;46889;37.310;13.582;2023-09-19T22:31:19;10.57;;;4.93;;
61003;SDS011;46889;37.310;13.582;2023-09-19T22:34:07;16.98;;;5.03;;
61003;SDS011;46889;37.310;13.582;2023-09-19T22:36:34;13.50;;;4.68;;
61003;SDS011;46889;37.310;13.582;2023-09-19T22:39:08;18.58;;;5.30;;
61003;SDS011;46889;37.310;13.582;2023-09-19T22:41:41;16.25;;;5.10;;
61003;SDS011;46889;37.310;13.582;2023-09-19T22:44:08;19.30;;;5.60;;
61003;SDS011;46889;37.310;13.582;2023-09-19T22:46:35;15.52;;;4.63;;
61003;SDS011;46889;37.310;13.582;2023-09-19T22:49:01;10.73;;;4.38;;
61003;SDS011;46889;37.310;13.582;2023-09-19T22:54:04;14.55;;;4.47;;
61003;SDS011;46889;37.310;13.582;2023-09-19T22:56:37;14.02;;;4.72;;
61003;SDS011;46889;37.310;13.582;2023-09-19T22:59:04;18.83;;;4.13;;
61003;SDS011;46889;37.310;13.582;2023-09-19T23:01:30;11.70;;;5.05;;
61003;SDS011;46889;37.310;13.582;2023-09-19T23:04:00;16.58;;;5.10;;
61003;SDS011;46889;37.310;13.582;2023-09-19T23:06:43;18.10;;;5.38;;
61003;SDS011;46889;37.310;13.582;2023-09-19T23:09:16;18.90;;;5.05;;
61003;SDS011;46889;37.310;13.582;2023-09-19T23:11:56;15.85;;;4.70;;
61003;SDS011;46889;37.310;13.582;2023-09-19T23:14:35;17.08;;;4.63;;
61003;SDS011;46889;37.310;13.582;2023-09-19T23:17:05;10.10;;;4.55;;
61003;SDS011;46889;37.310;13.582;2023-09-19T23:19:40;15.70;;;4.90;;
61003;SDS011;46889;37.310;13.582;2023-09-19T23:22:13;14.30;;;5.00;;
61003;SDS011;46889;37.310;13.582;2023-09-19T23:24:42;14.07;;;5.10;;
61003;SDS011;46889;37.310;13.582;2023-09-19T23:27:08;12.00;;;4.70;;
61003;SDS011;46889;37.310;13.582;2023-09-19T23:29:49;15.43;;;5.15;;
61003;SDS011;46889;37.310;13.582;2023-09-19T23:32:16;17.50;;;4.90;;
61003;SDS011;46889;37.310;13.582;2023-09-19T23:34:46;10.57;;;4.38;;
61003;SDS011;46889;37.310;13.582;2023-09-19T23:37:12;18.67;;;5.03;;
61003;SDS011;46889;37.310;13.582;2023-09-19T23:39:39;15.35;;;5.30;;
61003;SDS011;46889;37.310;13.582;2023-09-19T23:42:09;18.35;;;4.50;;
61003;SDS011;46889;37.310;13.582;2023-09-19T23:44:38;9.95;;;4.72;;
61003;SDS011;46889;37.310;13.582;2023-09-19T23:47:10;12.85;;;4.45;;
61003;SDS011;46889;37.310;13.582;2023-09-19T23:49:36;14.93;;;4.53;;
61003;SDS011;46889;37.310;13.582;2023-09-19T23:52:04;19.00;;;5.18;;
61003;SDS011;46889;37.310;13.582;2023-09-19T23:54:31;12.25;;;4.75;;
61003;SDS011;46889;37.310;13.582;2023-09-19T23:57:00;14.45;;;4.82;;
61003;SDS011;46889;37.310;13.582;2023-09-19T23:59:28;11.77;;;5.13;;
